Time;durP1;ratioP1;P1;durP2;ratioP2;P2;SDS_P1;SDS_P2;PMS_P1;PMS_P2;Temp;Humidity;BMP_temperature;BMP_pressure;BME280_temperature;BME280_humidity;BME280_pressure;Samples;Min_cycle;Max_cycle;Signal;HPM_P1;HPM_P2
2023/04/27 00:00:36;;;;;;;;;9.00;7.67;;;;;13.43;54.67;100937.03;4957367;28;45474;-62
2023/04/27 00:03:04;;;;;;;;;8.00;8.00;;;;;13.45;55.20;100940.47;4957375;28;45558;-62
2023/04/27 00:05:37;;;;;;;;;9.00;7.33;;;;;13.48;55.12;100952.69;4957334;28;45549;-62
2023/04/27 00:08:06;;;;;;;;;11.33;9.67;;;;;13.48;55.21;100953.53;4956979;28;45505;-62
2023/04/27 00:10:32;;;;;;;;;7.67;7.00;;;;;13.50;54.92;100953.47;4955879;28;46202;-62
2023/04/27 00:12:57;;;;;;;;;8.00;7.00;;;;;13.52;55.52;100950.78;4957095;28;45477;-62
2023/04/27 00:15:23;;;;;;;;;9.33;8.33;;;;;13.50;55.68;100950.84;4955783;28;45412;-62
2023/04/27 00:17:48;;;;;;;;;9.33;9.00;;;;;13.46;55.67;100939.56;4957433;28;45376;-62
2023/04/27 00:20:14;;;;;;;;;10.67;10.67;;;;;13.52;55.12;100945.50;4957011;28;45594;-62
2023/04/27 00:22:39;;;;;;;;;8.67;8.67;;;;;13.50;55.24;100950.00;4955698;28;48586;-63
2023/04/27 00:25:05;;;;;;;;;11.33;9.33;;;;;13.53;55.29;100949.84;4957070;28;45498;-62
2023/04/27 00:27:30;;;;;;;;;9.00;9.00;;;;;13.53;55.22;100944.56;4956845;28;45435;-63
2023/04/27 00:29:56;;;;;;;;;7.67;7.67;;;;;13.48;55.73;100929.75;4957165;28;45549;-62
2023/04/27 00:32:21;;;;;;;;;8.33;8.00;;;;;13.50;55.60;100932.34;4956940;28;45501;-62
2023/04/27 00:34:47;;;;;;;;;10.00;10.00;;;;;13.47;55.73;100921.91;4956775;28;45402;-62
2023/04/27 00:37:12;;;;;;;;;10.67;10.00;;;;;13.51;55.80;100928.75;4956945;28;45525;-62
2023/04/27 00:39:37;;;;;;;;;9.67;9.67;;;;;13.53;55.36;100926.06;4956808;28;46095;-62
2023/04/27 00:42:03;;;;;;;;;9.67;7.67;;;;;13.52;55.83;100929.66;4956635;28;45453;-63
2023/04/27 00:44:28;;;;;;;;;8.00;8.00;;;;;13.48;55.11;100924.47;4955833;28;45452;-62
2023/04/27 00:46:55;;;;;;;;;9.67;9.00;;;;;13.53;55.49;100923.44;4956646;28;45459;-62
2023/04/27 00:49:21;;;;;;;;;8.00;7.67;;;;;13.51;55.68;100922.63;4956610;28;46260;-62
2023/04/27 00:51:47;;;;;;;;;9.33;8.33;;;;;13.48;55.36;100919.19;4956657;28;45328;-62
2023/04/27 00:54:14;;;;;;;;;11.67;8.67;;;;;13.50;55.63;100923.56;4956552;28;45308;-62
2023/04/27 00:56:40;;;;;;;;;13.33;9.00;;;;;13.50;55.42;100915.63;4956482;28;45423;-62
2023/04/27 00:59:06;;;;;;;;;12.33;10.00;;;;;13.45;55.31;100913.19;4956138;28;46307;-62
2023/04/27 01:01:32;;;;;;;;;8.33;8.33;;;;;13.49;55.29;100917.44;4956539;28;45436;-62
2023/04/27 01:03:57;;;;;;;;;8.67;7.00;;;;;13.47;55.66;100920.13;4956452;28;45462;-62
2023/04/27 01:06:22;;;;;;;;;9.00;8.00;;;;;13.45;55.43;100913.19;4957002;28;45736;-62
2023/04/27 01:08:48;;;;;;;;;9.00;9.00;;;;;13.45;55.19;100913.19;4956212;28;45478;-62
2023/04/27 01:11:13;;;;;;;;;11.33;9.67;;;;;13.43;55.35;100915.03;4956302;28;45445;-62
2023/04/27 01:13:38;;;;;;;;;10.00;9.00;;;;;13.43;55.28;100915.03;4956604;28;45449;-63
2023/04/27 01:16:04;;;;;;;;;9.67;9.67;;;;;13.43;55.59;100921.19;4956133;28;45536;-63
2023/04/27 01:18:29;;;;;;;;;9.00;7.33;;;;;13.45;55.47;100919.31;4956145;28;45530;-63
2023/04/27 01:20:55;;;;;;;;;10.33;10.00;;;;;13.45;55.43;100916.69;4956169;28;45475;-62
2023/04/27 01:23:21;;;;;;;;;11.33;10.33;;;;;13.43;55.29;100915.03;4955364;28;45511;-62
2023/04/27 01:25:46;;;;;;;;;9.33;9.33;;;;;13.43;55.64;100925.59;4955163;28;45511;-62
2023/04/27 01:28:12;;;;;;;;;8.67;8.67;;;;;13.42;55.72;100922.09;4962062;28;49147;-62
2023/04/27 01:30:37;;;;;;;;;10.33;10.33;;;;;13.41;55.86;100919.53;4962871;28;45396;-62
2023/04/27 01:33:02;;;;;;;;;8.33;8.33;;;;;13.44;55.56;100925.53;4962459;28;46966;-62
2023/04/27 01:35:28;;;;;;;;;8.00;8.00;;;;;13.45;55.95;100923.75;4962655;28;45423;-62
2023/04/27 01:37:53;;;;;;;;;10.33;9.33;;;;;13.41;55.54;100923.03;4961571;28;66330;-62
2023/04/27 01:40:18;;;;;;;;;11.67;10.00;;;;;13.39;56.07;100918.72;4962590;28;45411;-62
2023/04/27 01:42:44;;;;;;;;;8.00;8.00;;;;;13.38;55.94;100917.88;4962625;28;45383;-62
2023/04/27 01:45:10;;;;;;;;;7.00;7.00;;;;;13.41;56.28;100912.47;4962568;28;45444;-63
2023/04/27 01:47:35;;;;;;;;;11.00;8.67;;;;;13.41;56.10;100904.53;4962518;28;45759;-62
2023/04/27 01:50:01;;;;;;;;;8.33;7.00;;;;;13.41;56.30;100901.91;4961743;28;54159;-62
2023/04/27 01:52:27;;;;;;;;;12.67;10.00;;;;;13.38;55.76;100895.84;4962427;28;45457;-62
2023/04/27 01:54:52;;;;;;;;;11.33;10.00;;;;;13.43;56.32;100900.06;4962408;28;45502;-63
2023/04/27 01:57:18;;;;;;;;;8.67;7.00;;;;;13.40;56.80;100894.00;4961150;28;45596;-63
2023/04/27 01:59:43;;;;;;;;;11.33;9.67;;;;;13.35;56.74;100896.00;4962145;28;45440;-62
2023/04/27 02:02:08;;;;;;;;;10.00;10.00;;;;;13.33;56.60;100903.16;4961276;28;45360;-62
2023/04/27 02:04:35;;;;;;;;;10.33;10.33;;;;;13.30;57.03;100901.50;4961701;28;54581;-62
2023/04/27 02:07:00;;;;;;;;;12.00;11.00;;;;;13.24;56.61;100885.84;4960891;28;47058;-63
2023/04/27 02:09:26;;;;;;;;;10.33;10.33;;;;;13.26;56.77;100898.09;4961886;28;45338;-62
2023/04/27 02:11:51;;;;;;;;;11.00;11.00;;;;;13.25;56.74;100899.00;4962241;28;45491;-62
2023/04/27 02:14:16;;;;;;;;;10.00;10.00;;;;;13.21;56.20;100889.47;4962076;28;45367;-62
2023/04/27 02:16:41;;;;;;;;;9.67;8.67;;;;;13.26;56.85;100898.09;4962161;28;45870;-62
2023/04/27 02:19:07;;;;;;;;;12.33;10.67;;;;;13.26;56.84;100891.97;4961642;28;51843;-63
2023/04/27 02:21:32;;;;;;;;;12.00;12.00;;;;;13.23;57.11;100882.34;4961886;28;47258;-60
2023/04/27 02:23:57;;;;;;;;;12.67;11.00;;;;;13.29;56.38;100889.19;4961830;28;46204;-63
2023/04/27 02:26:28;;;;;;;;;12.67;11.67;;;;;13.30;56.47;100888.28;4960553;28;45529;-62
2023/04/27 02:28:55;;;;;;;;;10.00;8.67;;;;;13.33;56.84;100895.22;4962090;28;45472;-62
2023/04/27 02:31:21;;;;;;;;;14.00;11.00;;;;;13.33;56.55;100900.50;4962269;28;45533;-63
2023/04/27 02:33:46;;;;;;;;;9.33;9.33;;;;;13.33;56.77;100905.78;4961911;28;45505;-62
2023/04/27 02:36:11;;;;;;;;;14.67;13.67;;;;;13.32;56.89;100901.41;4961808;28;45410;-62
2023/04/27 02:38:37;;;;;;;;;10.33;9.00;;;;;13.34;56.11;100903.06;4959162;28;45324;-63
2023/04/27 02:41:02;;;;;;;;;12.00;12.00;;;;;13.34;56.79;100896.94;4958776;28;45457;-62
2023/04/27 02:43:27;;;;;;;;;12.00;12.00;;;;;13.31;56.43;100895.28;4958475;28;45538;-62
2023/04/27 02:45:53;;;;;;;;;14.00;12.67;;;;;13.33;57.21;100895.22;4958433;28;45647;-62
2023/04/27 02:48:18;;;;;;;;;12.00;11.33;;;;;13.29;56.60;100898.91;4958432;28;45434;-62
2023/04/27 02:50:44;;;;;;;;;17.33;15.33;;;;;13.27;56.86;100904.22;4958692;28;45404;-63
2023/04/27 02:53:10;;;;;;;;;12.33;11.00;;;;;13.26;57.13;100902.53;4958603;28;45434;-62
2023/04/27 02:55:36;;;;;;;;;13.00;13.00;;;;;13.27;56.72;100909.50;4958272;28;45448;-63
2023/04/27 02:58:02;;;;;;;;;13.67;11.67;;;;;13.27;57.17;100906.88;4958092;28;45463;-62
2023/04/27 03:00:27;;;;;;;;;11.00;11.00;;;;;13.26;57.07;100908.66;4958453;28;45575;-62
2023/04/27 03:02:52;;;;;;;;;15.00;12.33;;;;;13.28;56.87;100910.41;4958345;28;45573;-62
2023/04/27 03:05:18;;;;;;;;;11.33;11.33;;;;;13.22;57.04;100907.06;4958010;28;45941;-63
2023/04/27 03:07:43;;;;;;;;;13.50;11.00;;;;;13.26;57.21;100907.81;4958244;28;45608;-63
2023/04/27 03:10:09;;;;;;;;;16.33;14.33;;;;;13.24;56.81;100910.50;4958201;28;45427;-62
2023/04/27 03:12:34;;;;;;;;;12.67;11.33;;;;;13.25;56.57;100909.56;4958158;28;45490;-62
2023/04/27 03:15:00;;;;;;;;;16.00;12.00;;;;;13.25;56.93;100900.78;4958112;28;46066;-63
2023/04/27 03:17:26;;;;;;;;;17.67;12.00;;;;;13.24;57.04;100897.28;4958109;28;45371;-62
2023/04/27 03:19:51;;;;;;;;;18.00;17.33;;;;;13.25;57.07;100903.44;4958026;28;45458;-62
2023/04/27 03:22:17;;;;;;;;;15.67;13.33;;;;;13.25;56.39;100900.78;4958218;28;45581;-63
2023/04/27 03:24:42;;;;;;;;;14.00;14.00;;;;;13.21;57.23;100900.03;4957589;28;45419;-62
2023/04/27 03:27:08;;;;;;;;;12.00;12.00;;;;;13.28;57.01;100911.25;4957863;28;45450;-63
2023/04/27 03:29:33;;;;;;;;;11.33;11.33;;;;;13.28;56.79;100903.34;4957737;28;45317;-63
2023/04/27 03:31:58;;;;;;;;;14.00;12.67;;;;;13.26;56.64;100907.81;4957933;28;55160;-62
2023/04/27 03:34:24;;;;;;;;;13.67;11.33;;;;;13.26;56.83;100908.66;4957203;28;62837;-62
2023/04/27 03:36:49;;;;;;;;;11.67;11.67;;;;;13.24;56.65;100905.22;4957173;28;52903;-62
2023/04/27 03:39:15;;;;;;;;;14.67;14.67;;;;;13.25;56.80;100908.72;4957874;28;45422;-62
2023/04/27 03:41:40;;;;;;;;;13.33;13.33;;;;;13.21;57.07;100907.97;4957598;28;45610;-62
2023/04/27 03:44:06;;;;;;;;;14.00;14.00;;;;;13.20;57.05;100908.03;4957625;28;46048;-62
2023/04/27 03:46:31;;;;;;;;;16.67;13.33;;;;;13.20;57.33;100911.53;4957352;28;49454;-62
2023/04/27 03:48:56;;;;;;;;;13.67;11.00;;;;;13.19;57.67;100906.31;4957697;28;45430;-62
2023/04/27 03:51:22;;;;;;;;;15.67;14.67;;;;;13.15;57.78;100904.72;4956206;28;45465;-62
2023/04/27 03:53:47;;;;;;;;;16.67;16.00;;;;;13.09;58.07;100899.72;4956939;28;56044;-62
2023/04/27 03:56:12;;;;;;;;;19.00;18.00;;;;;13.04;57.59;100895.47;4957196;28;48461;-62
2023/04/27 03:58:38;;;;;;;;;16.00;14.67;;;;;13.09;58.10;100905.84;4957339;28;45503;-62
2023/04/27 04:01:03;;;;;;;;;17.00;14.67;;;;;13.02;57.76;100894.66;4956207;28;45469;-63
2023/04/27 04:03:28;;;;;;;;;14.33;13.00;;;;;13.10;57.87;100909.34;4957029;28;45493;-62
2023/04/27 04:05:54;;;;;;;;;16.00;14.67;;;;;13.11;57.87;100906.66;4957442;28;45443;-63
2023/04/27 04:08:19;;;;;;;;;15.67;15.67;;;;;13.11;58.18;100909.28;4957448;28;45513;-62
2023/04/27 04:10:45;;;;;;;;;14.00;12.67;;;;;13.10;58.31;100901.41;4957191;28;45589;-63
2023/04/27 04:13:10;;;;;;;;;20.33;15.00;;;;;13.09;58.19;100903.19;4957312;28;45509;-62
2023/04/27 04:15:35;;;;;;;;;18.00;16.00;;;;;13.07;58.28;100905.03;4956799;28;49160;-62
2023/04/27 04:18:01;;;;;;;;;17.00;16.00;;;;;13.07;58.07;100897.13;4957249;28;45431;-62
2023/04/27 04:20:26;;;;;;;;;19.00;16.33;;;;;13.10;58.35;100904.06;4957242;28;45481;-62
2023/04/27 04:22:51;;;;;;;;;13.67;13.67;;;;;13.09;58.40;100902.34;4956940;28;46092;-62
2023/04/27 04:25:17;;;;;;;;;12.33;12.33;;;;;13.12;57.84;100910.13;4957104;28;45361;-62
2023/04/27 04:27:43;;;;;;;;;17.67;14.00;;;;;13.11;57.40;100906.66;4956958;28;45407;-62
2023/04/27 04:30:09;;;;;;;;;17.67;17.67;;;;;13.09;57.89;100912.91;4957497;28;45480;-62
2023/04/27 04:32:36;;;;;;;;;13.67;13.67;;;;;13.10;58.26;100911.97;4956927;28;45495;-62
2023/04/27 04:35:04;;;;;;;;;16.33;15.33;;;;;13.13;58.31;100909.19;4955425;28;45490;-62
2023/04/27 04:37:31;;;;;;;;;12.67;12.67;;;;;13.16;58.16;100909.06;4956851;28;45616;-62
2023/04/27 04:39:57;;;;;;;;;17.00;17.00;;;;;13.16;57.73;100909.94;4956639;28;45510;-62
2023/04/27 04:42:22;;;;;;;;;19.00;18.00;;;;;13.18;58.14;100910.72;4956598;28;47808;-62
2023/04/27 04:44:48;;;;;;;;;17.67;17.33;;;;;13.18;57.68;100899.31;4956562;28;45422;-62
2023/04/27 04:47:13;;;;;;;;;18.67;17.67;;;;;13.11;57.29;100898.72;4956812;28;45398;-62
2023/04/27 04:49:39;;;;;;;;;14.00;14.00;;;;;13.07;57.20;100901.53;4956748;28;45707;-62
2023/04/27 04:52:04;;;;;;;;;15.67;15.67;;;;;13.02;57.50;100899.94;4956380;28;45805;-62
2023/04/27 04:54:30;;;;;;;;;16.33;13.33;;;;;12.96;57.58;100904.63;4956640;28;45454;-62
2023/04/27 04:56:57;;;;;;;;;21.33;21.00;;;;;12.97;57.67;100904.53;4956539;28;45403;-62
2023/04/27 04:59:22;;;;;;;;;17.67;15.33;;;;;12.96;57.30;100897.56;4956509;28;45649;-62
2023/04/27 05:01:47;;;;;;;;;19.67;15.67;;;;;12.96;58.14;100902.84;4955385;28;48342;-62
2023/04/27 05:04:13;;;;;;;;;19.00;18.00;;;;;12.93;57.57;100900.31;4956312;28;45484;-62
2023/04/27 05:06:38;;;;;;;;;18.00;15.00;;;;;12.87;57.91;100900.56;4956528;28;45512;-63
2023/04/27 05:09:05;;;;;;;;;22.67;20.33;;;;;12.87;57.37;100908.50;4955164;28;45586;-62
2023/04/27 05:11:30;;;;;;;;;20.67;19.67;;;;;12.85;58.09;100899.75;4956391;28;45531;-63
2023/04/27 05:13:56;;;;;;;;;20.00;17.67;;;;;12.86;58.01;100904.13;4955891;28;45364;-62
2023/04/27 05:16:21;;;;;;;;;16.67;15.33;;;;;12.85;57.81;100902.41;4956176;28;45469;-62
2023/04/27 05:18:46;;;;;;;;;19.33;16.00;;;;;12.89;58.12;100916.34;4956097;28;45518;-62
2023/04/27 05:21:13;;;;;;;;;16.00;16.00;;;;;12.86;57.74;100909.41;4955313;28;62338;-62
2023/04/27 05:23:39;;;;;;;;;17.00;14.67;;;;;12.87;57.22;100920.81;4956271;28;45438;-63
2023/04/27 05:26:14;;;;;;;;;17.67;16.00;;;;;12.83;56.96;100915.66;4955863;28;45432;-62
2023/04/27 05:28:40;;;;;;;;;17.00;16.00;;;;;12.82;56.98;100910.44;4956197;28;45308;-62
2023/04/27 05:31:05;;;;;;;;;16.67;16.00;;;;;12.86;57.47;100911.19;4956197;28;45845;-63
2023/04/27 05:33:31;;;;;;;;;19.00;16.00;;;;;12.87;57.39;100913.78;4956083;28;45315;-62
2023/04/27 05:35:56;;;;;;;;;17.33;14.67;;;;;12.89;57.91;100911.06;4956023;28;45706;-63
2023/04/27 05:38:21;;;;;;;;;8.67;8.67;;;;;12.85;56.92;100902.41;4955898;28;45568;-62
2023/04/27 05:40:53;;;;;;;;;17.00;17.00;;;;;12.84;57.07;100900.66;4955552;28;53905;-62
2023/04/27 05:43:18;;;;;;;;;14.33;14.33;;;;;12.84;57.59;100903.31;4955698;28;45461;-61
2023/04/27 05:45:44;;;;;;;;;15.00;14.67;;;;;12.82;57.50;100899.91;4954156;28;51242;-63
2023/04/27 05:48:09;;;;;;;;;16.00;15.00;;;;;12.79;57.83;100897.38;4955801;28;45439;-62
2023/04/27 05:50:34;;;;;;;;;19.67;17.67;;;;;12.76;57.83;100895.72;4955567;28;45557;-62
2023/04/27 05:53:00;;;;;;;;;15.00;15.00;;;;;12.77;58.13;100902.72;4955683;28;45403;-62
2023/04/27 05:55:25;;;;;;;;;16.00;14.67;;;;;12.72;58.04;100893.25;4955384;28;45435;-62
2023/04/27 05:57:50;;;;;;;;;14.33;14.33;;;;;12.75;57.95;100903.69;4955545;28;47888;-62
2023/04/27 06:00:16;;;;;;;;;19.33;14.33;;;;;12.77;58.08;100904.50;4955434;28;45855;-61
2023/04/27 06:02:42;;;;;;;;;15.67;15.67;;;;;12.77;58.67;100904.50;4955569;28;45387;-61
2023/04/27 06:05:08;;;;;;;;;15.33;14.67;;;;;12.76;58.56;100900.13;4955305;28;45331;-61
2023/04/27 06:07:34;;;;;;;;;19.00;19.00;;;;;12.78;58.25;100900.91;4955568;28;45424;-60
2023/04/27 06:10:00;;;;;;;;;16.67;16.67;;;;;12.83;57.99;100910.38;4955203;28;46694;-61
2023/04/27 06:12:25;;;;;;;;;18.33;18.33;;;;;12.86;58.09;100912.03;4955284;28;45446;-62
2023/04/27 06:14:50;;;;;;;;;18.00;16.67;;;;;12.90;58.00;100908.38;4958257;28;45449;-61
2023/04/27 06:17:16;;;;;;;;;16.00;14.33;;;;;12.88;57.78;100915.47;4958759;28;45434;-61
2023/04/27 06:19:41;;;;;;;;;17.67;16.00;;;;;12.85;57.69;100907.69;4957987;28;61014;-61
2023/04/27 06:22:06;;;;;;;;;16.00;16.00;;;;;12.89;58.12;100909.25;4958666;28;55199;-61
2023/04/27 06:24:31;;;;;;;;;12.67;12.33;;;;;12.87;57.73;100900.56;4958675;28;45351;-61
2023/04/27 06:26:57;;;;;;;;;17.00;16.00;;;;;12.88;57.31;100904.06;4958756;28;45400;-61
2023/04/27 06:29:22;;;;;;;;;16.67;16.67;;;;;12.86;57.67;100901.47;4958702;28;45410;-62
2023/04/27 06:31:48;;;;;;;;;21.33;19.33;;;;;12.92;57.73;100908.28;4959123;28;45431;-61
2023/04/27 06:34:13;;;;;;;;;16.00;14.33;;;;;12.91;57.21;100906.56;4958649;28;45488;-61
2023/04/27 06:36:38;;;;;;;;;18.33;17.33;;;;;12.96;57.44;100910.75;4958371;28;45605;-61
2023/04/27 06:39:04;;;;;;;;;20.67;19.67;;;;;12.99;57.58;100907.97;4958464;28;46040;-61
2023/04/27 06:41:29;;;;;;;;;18.67;17.33;;;;;12.98;56.91;100911.56;4958187;28;45415;-62
2023/04/27 06:43:55;;;;;;;;;21.00;19.00;;;;;12.95;56.41;100914.31;4958610;28;45468;-61
2023/04/27 06:46:20;;;;;;;;;23.00;20.00;;;;;12.94;56.97;100917.00;4958455;28;45402;-62
2023/04/27 06:48:45;;;;;;;;;11.67;11.00;;;;;12.96;57.06;100916.03;4958194;28;45462;-61
2023/04/27 06:51:12;;;;;;;;;14.33;14.33;;;;;12.98;56.66;100926.53;4958189;28;45487;-61
2023/04/27 06:53:38;;;;;;;;;18.67;17.00;;;;;13.01;56.12;100922.00;4957167;28;45432;-62
2023/04/27 06:56:04;;;;;;;;;18.33;17.33;;;;;13.03;55.73;100921.94;4958303;28;45570;-61
2023/04/27 06:58:30;;;;;;;;;16.00;12.33;;;;;13.03;56.16;100917.50;4957631;28;46061;-62
2023/04/27 07:00:55;;;;;;;;;17.00;16.33;;;;;13.00;55.98;100909.72;4958233;28;45533;-61
2023/04/27 07:03:21;;;;;;;;;17.67;14.67;;;;;13.09;55.88;100924.31;4958297;28;45323;-62
2023/04/27 07:05:46;;;;;;;;;18.67;18.67;;;;;13.16;54.91;100924.91;4957917;28;45412;-62
2023/04/27 07:08:12;;;;;;;;;13.00;12.00;;;;;13.13;54.19;100909.19;4958030;28;46282;-62
2023/04/27 07:10:37;;;;;;;;;15.33;15.33;;;;;13.20;54.98;100923.88;4957689;28;45396;-60
2023/04/27 07:13:03;;;;;;;;;21.00;17.00;;;;;13.21;54.80;100915.88;4958356;28;45372;-60
2023/04/27 07:15:29;;;;;;;;;18.00;16.33;;;;;13.22;54.86;100908.84;4957679;28;45382;-61
2023/04/27 07:17:55;;;;;;;;;18.00;18.00;;;;;13.26;54.96;100902.53;4957462;28;45459;-61
2023/04/27 07:20:21;;;;;;;;;17.67;17.67;;;;;13.27;54.33;100896.31;4957725;28;45464;-62
2023/04/27 07:22:46;;;;;;;;;18.00;17.67;;;;;13.25;53.80;100895.50;4958059;28;45432;-62
2023/04/27 07:25:11;;;;;;;;;15.00;15.00;;;;;13.22;53.62;100893.84;4957191;28;45522;-62
2023/04/27 07:27:37;;;;;;;;;15.33;14.67;;;;;13.23;53.32;100892.06;4957758;28;45492;-62
2023/04/27 07:30:04;;;;;;;;;14.33;14.00;;;;;13.24;53.42;100891.13;4957628;28;45466;-62
2023/04/27 07:32:30;;;;;;;;;16.33;13.00;;;;;13.26;53.11;100892.81;4958420;28;45563;-63
2023/04/27 07:34:55;;;;;;;;;13.33;12.67;;;;;13.28;52.94;100894.56;4957645;28;45585;-62
2023/04/27 07:37:21;;;;;;;;;15.33;11.67;;;;;13.31;52.27;100903.19;4957443;28;45494;-62
2023/04/27 07:39:49;;;;;;;;;12.00;11.00;;;;;13.30;51.89;100903.25;4957478;28;45389;-62
2023/04/27 07:42:14;;;;;;;;;12.00;11.33;;;;;13.33;52.47;100893.44;4957556;28;45427;-62
2023/04/27 07:44:41;;;;;;;;;12.00;10.00;;;;;13.39;52.25;100901.09;4957573;28;45505;-62
2023/04/27 07:47:06;;;;;;;;;14.00;12.33;;;;;13.39;50.62;100898.44;4957511;28;47220;-63
2023/04/27 07:49:33;;;;;;;;;13.67;12.00;;;;;13.44;51.38;100909.69;4957281;28;45462;-62
2023/04/27 07:51:58;;;;;;;;;11.67;10.33;;;;;13.50;51.68;100905.06;4957316;28;45398;-62
2023/04/27 07:54:23;;;;;;;;;11.00;11.00;;;;;13.50;50.83;100900.63;4957231;28;45367;-63
2023/04/27 07:56:49;;;;;;;;;7.67;7.67;;;;;13.50;50.34;100897.13;4957027;28;45456;-63
2023/04/27 07:59:14;;;;;;;;;11.00;9.33;;;;;13.50;50.40;100905.91;4957086;28;45434;-62
2023/04/27 08:01:40;;;;;;;;;11.00;11.00;;;;;13.51;50.44;100901.50;4957317;28;45475;-62
2023/04/27 08:04:05;;;;;;;;;9.67;9.67;;;;;13.54;50.52;100901.34;4955559;28;45677;-63
2023/04/27 08:06:31;;;;;;;;;9.67;7.67;;;;;13.56;50.36;100908.28;4956954;28;46042;-62
2023/04/27 08:08:59;;;;;;;;;10.00;10.00;;;;;13.57;49.88;100917.97;4957017;28;45418;-62
2023/04/27 08:11:25;;;;;;;;;11.33;9.33;;;;;13.61;50.17;100918.69;4956917;28;45478;-62
2023/04/27 08:13:50;;;;;;;;;9.33;9.00;;;;;13.65;50.10;100918.50;4957296;28;45634;-63
2023/04/27 08:16:16;;;;;;;;;10.67;10.00;;;;;13.70;49.73;100918.25;4957015;28;45320;-63
2023/04/27 08:18:42;;;;;;;;;11.67;10.33;;;;;13.69;50.02;100920.06;4956925;28;45450;-62
2023/04/27 08:21:08;;;;;;;;;9.00;9.00;;;;;13.69;49.99;100917.41;4957035;28;45456;-63
2023/04/27 08:23:35;;;;;;;;;10.00;9.00;;;;;13.72;49.48;100918.22;4955959;28;45641;-62
2023/04/27 08:26:00;;;;;;;;;10.00;10.00;;;;;13.72;50.08;100907.63;4956519;28;46010;-62
2023/04/27 08:28:26;;;;;;;;;11.00;11.00;;;;;13.73;50.01;100904.94;4954964;28;51676;-62
2023/04/27 08:30:51;;;;;;;;;8.00;8.00;;;;;13.75;50.40;100891.66;4957012;28;53707;-62
2023/04/27 08:33:16;;;;;;;;;10.33;9.33;;;;;13.76;50.61;100885.44;4955975;28;60430;-62
2023/04/27 08:35:42;;;;;;;;;10.33;8.67;;;;;13.77;49.85;100880.06;4956091;28;45391;-62
2023/04/27 08:38:07;;;;;;;;;15.67;10.00;;;;;13.82;50.32;100886.03;4955776;28;45446;-63
2023/04/27 08:40:32;;;;;;;;;11.33;10.33;;;;;13.88;50.68;100891.03;4956663;28;45384;-62
2023/04/27 08:42:59;;;;;;;;;13.00;10.00;;;;;13.90;50.22;100889.19;4956340;28;49408;-62
2023/04/27 08:45:26;;;;;;;;;11.33;9.00;;;;;13.93;50.42;100891.69;4956557;28;45542;-62
2023/04/27 08:47:52;;;;;;;;;10.33;9.00;;;;;13.99;50.57;100893.19;4956574;28;45585;-62
2023/04/27 08:50:18;;;;;;;;;14.00;13.00;;;;;14.04;50.61;100891.19;4956352;28;45518;-62
2023/04/27 08:52:45;;;;;;;;;10.67;10.67;;;;;14.09;50.80;100891.84;4956527;28;45603;-63
2023/04/27 08:55:11;;;;;;;;;8.67;8.67;;;;;14.10;50.92;100875.09;4956384;28;45514;-62
2023/04/27 08:57:37;;;;;;;;;10.00;8.67;;;;;14.16;50.68;100881.88;4956413;28;45487;-62
2023/04/27 09:00:11;;;;;;;;;9.67;8.33;;;;;14.17;50.21;100874.78;4956278;28;45375;-62
2023/04/27 09:02:36;;;;;;;;;9.00;9.00;;;;;14.20;50.51;100875.50;4956443;28;45458;-62
2023/04/27 09:05:03;;;;;;;;;12.67;11.00;;;;;14.24;50.13;100876.22;4956063;28;45520;-62
2023/04/27 09:07:28;;;;;;;;;9.00;9.00;;;;;14.28;50.38;100877.78;4955910;28;45456;-63
2023/04/27 09:10:03;;;;;;;;;9.00;8.67;;;;;14.27;50.03;100871.66;4956162;28;45543;-62
2023/04/27 09:12:28;;;;;;;;;10.33;10.00;;;;;14.33;50.08;100874.00;4956098;28;45490;-62
2023/04/27 09:14:58;;;;;;;;;9.33;9.00;;;;;14.34;50.62;100870.41;4955687;28;53277;-63
2023/04/27 09:17:26;;;;;;;;;14.33;10.67;;;;;14.41;50.45;100875.44;4955627;28;45503;-62
2023/04/27 09:19:51;;;;;;;;;10.33;9.00;;;;;14.47;50.38;100883.09;4955942;28;45525;-62
2023/04/27 09:22:17;;;;;;;;;9.33;9.00;;;;;14.44;50.34;100868.22;4955970;28;45423;-63
2023/04/27 09:24:52;;;;;;;;;9.33;9.33;;;;;14.53;50.33;100878.41;4955607;28;45474;-63
2023/04/27 09:27:20;;;;;;;;;11.67;10.33;;;;;14.53;50.75;100882.81;4955773;28;45344;-63
2023/04/27 09:29:46;;;;;;;;;12.00;8.00;;;;;14.51;50.36;100882.03;4955572;28;45491;-62
2023/04/27 09:32:19;;;;;;;;;7.00;7.00;;;;;14.52;50.29;100881.09;4956525;28;45384;-62
2023/04/27 09:34:45;;;;;;;;;6.00;4.67;;;;;14.56;50.31;100877.38;4955892;28;46273;-63
2023/04/27 09:37:11;;;;;;;;;8.67;8.67;;;;;14.60;51.04;100870.16;4955956;28;45453;-62
2023/04/27 09:39:37;;;;;;;;;8.33;8.33;;;;;14.64;51.29;100872.59;4954461;28;45578;-63
2023/04/27 09:42:06;;;;;;;;;7.33;7.33;;;;;14.70;50.44;100874.94;4955879;28;45407;-63
2023/04/27 09:44:32;;;;;;;;;9.33;9.33;;;;;14.75;50.57;100872.09;4955829;28;45721;-63
2023/04/27 09:46:59;;;;;;;;;7.00;7.00;;;;;14.76;51.15;100863.19;4955647;28;45332;-63
2023/04/27 09:49:26;;;;;;;;;11.00;10.00;;;;;14.81;50.65;100861.19;4959118;28;45562;-62
2023/04/27 09:51:53;;;;;;;;;7.33;6.00;;;;;14.82;50.61;100873.50;4959179;28;45742;-62
2023/04/27 09:54:21;;;;;;;;;8.33;8.33;;;;;14.83;50.96;100861.97;4959110;28;45967;-62
2023/04/27 09:57:01;;;;;;;;;7.00;7.00;;;;;14.85;50.70;100862.75;4959104;28;45514;-62
2023/04/27 09:59:44;;;;;;;;;7.00;7.00;;;;;14.84;50.76;100855.75;4958960;28;45370;-62
2023/04/27 10:02:14;;;;;;;;;10.00;8.67;;;;;14.90;51.06;100865.19;4958999;28;45430;-62
2023/04/27 10:05:12;;;;;;;;;9.00;7.33;;;;;14.97;51.49;100866.59;4958772;28;46026;-62
2023/04/27 10:07:40;;;;;;;;;8.00;8.00;;;;;14.98;50.58;100869.16;4958983;28;45435;-63
2023/04/27 10:10:06;;;;;;;;;8.33;7.33;;;;;14.99;50.95;100862.94;4958934;28;45504;-62
2023/04/27 10:12:35;;;;;;;;;5.33;5.33;;;;;15.01;51.21;100862.84;4958732;28;45313;-63
2023/04/27 10:15:12;;;;;;;;;7.67;7.67;;;;;15.05;51.29;100861.78;4958855;28;45475;-62
2023/04/27 10:17:37;;;;;;;;;5.67;4.67;;;;;15.09;51.58;100854.53;4957166;28;45395;-62
2023/04/27 10:20:08;;;;;;;;;7.00;7.00;;;;;15.11;51.05;100852.66;4958699;28;45411;-62
2023/04/27 10:22:41;;;;;;;;;6.00;6.00;;;;;15.16;50.77;100842.69;4958792;28;45688;-62
2023/04/27 10:25:20;;;;;;;;;9.33;8.33;;;;;15.18;51.40;100841.69;4957412;28;47130;-62
2023/04/27 10:27:52;;;;;;;;;8.67;7.00;;;;;15.18;51.15;100846.97;4958509;28;45377;-62
2023/04/27 10:30:19;;;;;;;;;11.00;10.33;;;;;15.20;50.77;100834.50;4958593;28;45472;-62
2023/04/27 10:33:08;;;;;;;;;7.00;6.67;;;;;15.24;50.40;100844.00;4959255;28;45660;-62
2023/04/27 10:35:38;;;;;;;;;6.00;6.00;;;;;15.23;50.86;100839.66;4956723;28;45622;-62
2023/04/27 10:38:28;;;;;;;;;5.00;5.00;;;;;15.24;51.27;100843.16;4958127;28;45536;-62
2023/04/27 10:41:03;;;;;;;;;5.67;5.67;;;;;15.27;52.11;100845.66;4960685;28;45389;-61
2023/04/27 10:43:30;;;;;;;;;8.00;7.00;;;;;15.29;51.14;100838.50;4957084;28;45479;-62
2023/04/27 10:46:10;;;;;;;;;8.00;8.00;;;;;15.33;51.28;100847.13;4957924;28;45562;-61
2023/04/27 10:48:37;;;;;;;;;5.67;5.67;;;;;15.34;51.34;100838.22;4957776;28;45550;-61
2023/04/27 10:51:03;;;;;;;;;8.33;8.33;;;;;15.40;51.62;100837.94;4957979;28;45444;-62
2023/04/27 10:53:36;;;;;;;;;8.00;7.00;;;;;15.43;51.31;100845.72;4957995;28;45586;-62
2023/04/27 10:56:04;;;;;;;;;6.00;5.00;;;;;15.47;51.48;100844.63;4957922;28;45458;-62
2023/04/27 10:58:29;;;;;;;;;10.00;7.67;;;;;15.44;50.96;100832.38;4957733;28;45489;-62
2023/04/27 11:00:55;;;;;;;;;7.67;7.67;;;;;15.51;50.97;100835.59;4957333;28;45438;-62
2023/04/27 11:03:22;;;;;;;;;6.00;6.00;;;;;15.55;51.29;100831.81;4958109;28;45601;-62
2023/04/27 11:05:57;;;;;;;;;6.33;6.33;;;;;15.54;50.54;100826.63;4957830;28;45589;-62
2023/04/27 11:08:23;;;;;;;;;10.00;8.00;;;;;15.63;51.02;100819.00;4957872;28;45510;-61
2023/04/27 11:10:50;;;;;;;;;9.67;8.00;;;;;15.67;50.20;100809.97;4957382;28;54228;-62